Time;durP1;ratioP1;P1;durP2;ratioP2;P2;SDS_P1;SDS_P2;PMS_P1;PMS_P2;Temp;Humidity;BMP_temperature;BMP_pressure;BME280_temperature;BME280_humidity;BME280_pressure;Samples;Min_cycle;Max_cycle;Signal;HPM_P1;HPM_P2
2021/03/03 00:01:00;;;;;;;19.77;7.03;;;;;;;1.43;100.00;101201.13;5073639;28;20056;-77
2021/03/03 00:04:04;;;;;;;21.10;6.75;;;;;;;1.46;100.00;101205.84;5060908;28;20047;-77
2021/03/03 00:07:08;;;;;;;18.33;6.75;;;;;;;1.46;100.00;101205.84;5073259;28;20051;-77
2021/03/03 00:10:11;;;;;;;33.28;8.43;;;;;;;1.48;100.00;101199.97;5073220;28;20063;-77
2021/03/03 00:13:16;;;;;;;22.27;7.45;;;;;;;1.46;100.00;101194.88;5072913;28;20500;-77
2021/03/03 00:16:19;;;;;;;27.60;7.68;;;;;;;1.43;100.00;101200.31;5060600;28;20044;-77
2021/03/03 00:19:22;;;;;;;18.05;8.10;;;;;;;1.42;100.00;101207.78;5060778;28;20055;-77
2021/03/03 00:22:26;;;;;;;42.25;8.43;;;;;;;1.41;100.00;101200.72;5060848;28;20059;-78
2021/03/03 00:25:29;;;;;;;21.10;6.57;;;;;;;1.42;100.00;101193.28;5060712;28;20059;-77
2021/03/03 00:28:33;;;;;;;33.33;6.07;;;;;;;1.43;100.00;101198.38;5060511;28;20047;-77
2021/03/03 00:31:36;;;;;;;34.72;10.73;;;;;;;1.44;100.00;101196.41;5060434;28;20047;-77
2021/03/03 00:34:39;;;;;;;21.42;7.10;;;;;;;1.43;100.00;101198.38;5060349;28;20041;-77
2021/03/03 00:37:43;;;;;;;27.17;8.38;;;;;;;1.44;100.00;101199.16;5060348;28;20040;-77
2021/03/03 00:40:46;;;;;;;20.80;7.00;;;;;;;1.42;100.00;101196.81;5072855;28;20047;-77
2021/03/03 00:43:49;;;;;;;26.85;5.97;;;;;;;1.41;100.00;101200.72;5060411;28;20055;-78
2021/03/03 00:46:53;;;;;;;22.05;7.00;;;;;;;1.41;100.00;101203.44;5060066;28;20052;-77
2021/03/03 00:49:56;;;;;;;19.48;6.82;;;;;;;1.40;100.00;101204.63;5060373;28;20056;-77
2021/03/03 00:53:00;;;;;;;22.23;6.35;;;;;;;1.36;100.00;101206.56;5072591;28;20047;-77
2021/03/03 00:56:04;;;;;;;19.17;6.15;;;;;;;1.36;100.00;101208.53;5073429;28;20043;-77
2021/03/03 00:59:08;;;;;;;22.90;6.97;;;;;;;1.35;100.00;101207.72;5072843;28;20052;-77
2021/03/03 01:02:12;;;;;;;14.05;5.22;;;;;;;1.37;100.00;101210.09;5059928;28;20044;-77
2021/03/03 01:05:16;;;;;;;24.83;6.53;;;;;;;1.40;100.00;101207.38;5060332;28;20063;-77
2021/03/03 01:08:20;;;;;;;50.50;8.57;;;;;;;1.41;100.00;101197.16;5072022;28;20051;-77
2021/03/03 01:11:23;;;;;;;25.02;6.82;;;;;;;1.40;100.00;101190.91;5059878;28;20051;-77
2021/03/03 01:14:27;;;;;;;33.30;8.13;;;;;;;1.41;100.00;101188.94;5059825;28;20102;-77
2021/03/03 01:17:32;;;;;;;27.13;6.35;;;;;;;1.40;100.00;101188.16;5071784;28;20055;-77
2021/03/03 01:20:36;;;;;;;36.55;7.70;;;;;;;1.40;100.00;101182.69;5059755;28;20047;-77
2021/03/03 01:23:39;;;;;;;26.88;7.55;;;;;;;1.39;100.00;101178.34;5059673;28;20055;-76
2021/03/03 01:26:43;;;;;;;30.23;9.23;;;;;;;1.38;100.00;101184.22;5072069;28;20071;-76
2021/03/03 01:29:47;;;;;;;26.02;7.68;;;;;;;1.36;100.00;101170.91;5072341;28;20051;-76
2021/03/03 01:32:50;;;;;;;37.00;8.50;;;;;;;1.36;100.00;101165.41;5072179;28;20492;-76
2021/03/03 01:35:54;;;;;;;19.33;5.55;;;;;;;1.36;100.00;101161.88;5059530;28;20059;-76
2021/03/03 01:38:57;;;;;;;14.73;7.07;;;;;;;1.36;100.00;101170.91;5059724;28;20049;-76
2021/03/03 01:42:01;;;;;;;22.48;6.75;;;;;;;1.36;100.00;101164.63;5072292;28;20052;-77
2021/03/03 01:45:05;;;;;;;27.50;9.50;;;;;;;1.38;100.00;101168.56;5059534;28;20063;-77
2021/03/03 01:48:09;;;;;;;28.23;6.82;;;;;;;1.40;100.00;101171.69;5059548;28;20512;-77
2021/03/03 01:51:13;;;;;;;29.33;8.32;;;;;;;1.38;100.00;101160.31;5059583;28;20055;-76
2021/03/03 01:54:17;;;;;;;31.85;8.48;;;;;;;1.37;100.00;101164.22;5059941;28;20095;-76
2021/03/03 01:57:21;;;;;;;25.40;5.95;;;;;;;1.36;100.00;101161.88;5047984;28;20060;-76
2021/03/03 02:00:24;;;;;;;27.55;5.97;;;;;;;1.36;100.00;101162.66;5059933;28;20048;-77
2021/03/03 02:03:28;;;;;;;20.83;5.85;;;;;;;1.38;100.00;101154.84;5071564;28;20043;-76
2021/03/03 02:06:43;;;;;;;34.45;8.60;;;;;;;1.36;100.00;101154.44;5063257;28;20048;-77
2021/03/03 02:10:11;;;;;;;42.38;9.65;;;;;;;1.36;100.00;101159.13;5063361;28;20056;-76
2021/03/03 02:13:29;;;;;;;41.20;9.27;;;;;;;1.34;100.00;101156.75;5075285;28;20496;-77
2021/03/03 02:16:36;;;;;;;23.92;8.90;;;;;;;1.33;100.00;101149.69;5075107;28;20389;-77
2021/03/03 02:19:40;;;;;;;12.82;6.32;;;;;;;1.32;100.00;101153.59;5075530;28;20051;-77
2021/03/03 02:23:13;;;;;;;30.15;8.40;;;;;;;1.34;100.00;101145.00;5075440;28;20047;-77
2021/03/03 02:26:23;;;;;;;25.50;7.25;;;;;;;1.36;100.00;101139.91;5064046;28;20044;-77
2021/03/03 02:29:28;;;;;;;16.77;7.00;;;;;;;1.38;100.00;101140.31;5060551;28;20063;-76
2021/03/03 02:32:32;;;;;;;19.17;6.35;;;;;;;1.37;100.00;101139.53;5062986;28;20395;-76
2021/03/03 02:35:37;;;;;;;34.00;9.38;;;;;;;1.38;100.00;101135.63;5075157;28;20496;-77
2021/03/03 02:38:42;;;;;;;34.53;7.55;;;;;;;1.37;100.00;101134.03;5075038;28;20397;-77
2021/03/03 02:41:46;;;;;;;16.40;5.88;;;;;;;1.38;100.00;101135.63;5062792;28;20051;-77
2021/03/03 02:44:51;;;;;;;34.35;7.57;;;;;;;1.39;100.00;101137.19;5074656;28;20067;-76
2021/03/03 02:47:56;;;;;;;35.78;9.68;;;;;;;1.39;100.00;101131.69;5062210;28;20055;-77
2021/03/03 02:50:59;;;;;;;27.35;10.25;;;;;;;1.40;100.00;101127.00;5062498;28;20126;-77
2021/03/03 02:54:02;;;;;;;23.90;6.90;;;;;;;1.38;100.00;101124.66;5062780;28;20393;-77
2021/03/03 02:57:05;;;;;;;15.77;7.38;;;;;;;1.39;100.00;101126.19;5074730;28;20512;-77
2021/03/03 03:00:25;;;;;;;29.90;7.03;;;;;;;1.40;100.00;101116.81;5062323;28;20507;-77
2021/03/03 03:03:35;;;;;;;25.88;9.23;;;;;;;1.36;100.00;101118.75;5062193;28;20055;-77
2021/03/03 03:06:41;;;;;;;24.00;7.80;;;;;;;1.37;100.00;101112.09;5074685;28;20051;-77
2021/03/03 03:09:48;;;;;;;22.40;6.35;;;;;;;1.33;100.00;101105.78;5074691;28;20055;-76
2021/03/03 03:12:53;;;;;;;30.70;8.27;;;;;;;1.33;100.00;101107.75;5062247;28;20047;-77
2021/03/03 03:15:59;;;;;;;32.40;8.82;;;;;;;1.31;100.00;101101.84;5061137;28;20064;-77
2021/03/03 03:19:07;;;;;;;17.30;5.82;;;;;;;1.28;100.00;101091.63;5074744;28;20055;-77
2021/03/03 03:22:14;;;;;;;21.63;7.35;;;;;;;1.26;100.00;101097.50;5061962;28;20390;-77
2021/03/03 03:25:18;;;;;;;20.25;6.35;;;;;;;1.26;100.00;101092.00;5074106;28;20059;-78
2021/03/03 03:28:22;;;;;;;27.92;6.32;;;;;;;1.27;100.00;101101.03;5061665;28;20051;-77
2021/03/03 03:31:26;;;;;;;22.45;7.15;;;;;;;1.26;100.00;101094.75;5061914;28;20059;-77
2021/03/03 03:34:30;;;;;;;24.52;9.02;;;;;;;1.25;100.00;101098.69;5073982;28;20051;-77
2021/03/03 03:37:34;;;;;;;17.67;5.68;;;;;;;1.27;100.00;101095.56;5061467;28;20048;-77
2021/03/03 03:40:38;;;;;;;17.38;5.55;;;;;;;1.26;100.00;101105.72;5061486;28;20048;-77
2021/03/03 03:43:42;;;;;;;16.45;5.07;;;;;;;1.27;100.00;101109.28;5061621;28;20051;-77
2021/03/03 03:46:47;;;;;;;15.90;7.38;;;;;;;1.26;100.00;101111.22;5061396;28;20055;-77
2021/03/03 03:49:51;;;;;;;21.52;6.32;;;;;;;1.25;100.00;101114.34;5061113;28;20063;-77
2021/03/03 03:52:56;;;;;;;50.97;7.30;;;;;;;1.24;100.00;101107.28;5061152;28;20051;-77
2021/03/03 03:56:00;;;;;;;25.08;5.75;;;;;;;1.24;100.00;101108.06;5073598;28;20051;-77
2021/03/03 03:59:04;;;;;;;29.63;8.77;;;;;;;1.23;100.00;101103.78;5073913;28;20047;-77
2021/03/03 04:02:08;;;;;;;26.48;7.60;;;;;;;1.24;100.00;101108.06;5061232;28;20055;-76
2021/03/03 04:05:13;;;;;;;31.30;5.82;;;;;;;1.25;100.00;101098.69;5073538;28;20405;-77
2021/03/03 04:08:17;;;;;;;36.50;8.70;;;;;;;1.26;100.00;101093.97;5073351;28;20043;-77
2021/03/03 04:11:20;;;;;;;27.55;7.38;;;;;;;1.27;100.00;101090.84;5073348;28;20048;-77
2021/03/03 04:14:24;;;;;;;14.93;6.10;;;;;;;1.28;100.00;101091.63;5073260;28;20075;-77
2021/03/03 04:17:28;;;;;;;28.67;7.75;;;;;;;1.28;100.00;101092.41;5072844;28;20052;-77
2021/03/03 04:20:31;;;;;;;36.63;7.28;;;;;;;1.25;100.00;101095.94;5060734;28;20048;-77
2021/03/03 04:23:35;;;;;;;51.20;9.57;;;;;;;1.24;100.00;101075.16;5072969;28;20044;-77
2021/03/03 04:26:38;;;;;;;21.30;5.60;;;;;;;1.24;100.00;101086.13;5060481;28;20528;-77
2021/03/03 04:29:42;;;;;;;16.35;6.20;;;;;;;1.22;100.00;101082.19;5072933;28;20044;-77
2021/03/03 04:32:45;;;;;;;16.95;5.80;;;;;;;1.22;100.00;101087.66;5060486;28;20421;-77
2021/03/03 04:35:48;;;;;;;23.00;6.03;;;;;;;1.20;100.00;101082.56;5060328;28;20060;-77
2021/03/03 04:38:51;;;;;;;17.10;4.97;;;;;;;1.22;100.00;101088.47;5072954;28;20377;-77
2021/03/03 04:41:54;;;;;;;25.38;5.40;;;;;;;1.22;100.00;101087.66;5060785;28;20047;-77
2021/03/03 04:44:58;;;;;;;10.98;3.75;;;;;;;1.20;100.00;101096.28;5072684;28;20048;-77
2021/03/03 04:48:02;;;;;;;18.95;5.75;;;;;;;1.20;100.00;101096.28;5060063;28;20094;-77
2021/03/03 04:51:06;;;;;;;17.27;6.53;;;;;;;1.20;100.00;101093.56;5072827;28;20090;-77
2021/03/03 04:54:09;;;;;;;23.23;6.97;;;;;;;1.20;100.00;101096.28;5072378;28;20051;-77
2021/03/03 04:57:13;;;;;;;12.32;5.93;;;;;;;1.17;100.00;101091.56;5059948;28;20385;-77
2021/03/03 05:00:17;;;;;;;17.90;6.05;;;;;;;1.18;100.00;101092.34;5060123;28;20086;-77
2021/03/03 05:03:21;;;;;;;47.15;7.82;;;;;;;1.18;100.00;101084.13;5060003;28;20039;-77
2021/03/03 05:06:24;;;;;;;18.63;5.85;;;;;;;1.18;100.00;101084.13;5072144;28;20044;-77
2021/03/03 05:09:28;;;;;;;26.55;8.38;;;;;;;1.15;100.00;101080.19;5059906;28;20051;-77
2021/03/03 05:12:31;;;;;;;32.80;5.80;;;;;;;1.12;100.00;101071.94;5059451;28;20528;-77
2021/03/03 05:15:35;;;;;;;25.23;6.50;;;;;;;1.11;100.00;101076.63;5059869;28;20055;-77
2021/03/03 05:18:38;;;;;;;17.27;5.30;;;;;;;1.10;100.00;101075.06;5071915;28;20504;-77
2021/03/03 05:21:42;;;;;;;19.42;5.10;;;;;;;1.10;100.00;101074.28;5059795;28;20107;-77
2021/03/03 05:24:45;;;;;;;26.77;7.38;;;;;;;1.09;100.00;101067.19;5060144;28;20051;-77
2021/03/03 05:27:49;;;;;;;27.67;5.20;;;;;;;1.06;100.00;101074.22;5072165;28;20052;-77
2021/03/03 05:30:52;;;;;;;19.88;5.72;;;;;;;1.04;100.00;101073.84;5072250;28;20063;-77
2021/03/03 05:33:56;;;;;;;14.05;5.47;;;;;;;1.08;100.00;101082.09;5060015;28;20401;-77
2021/03/03 05:36:59;;;;;;;21.10;5.82;;;;;;;1.09;100.00;101075.44;5060080;28;20067;-77
2021/03/03 05:40:03;;;;;;;22.58;7.43;;;;;;;1.09;100.00;101072.69;5059057;28;20036;-77
2021/03/03 05:43:07;;;;;;;14.80;4.85;;;;;;;1.10;100.00;101075.06;5072127;28;20055;-77
2021/03/03 05:46:12;;;;;;;23.50;7.72;;;;;;;1.07;100.00;101064.84;5072258;28;20047;-77
2021/03/03 05:49:19;;;;;;;22.80;6.88;;;;;;;1.07;100.00;101066.81;5071835;28;20052;-77
2021/03/03 05:52:22;;;;;;;13.90;4.93;;;;;;;1.06;100.00;101068.75;5059301;28;20432;-77
2021/03/03 05:55:26;;;;;;;18.50;5.05;;;;;;;1.04;100.00;101062.88;5072079;28;20051;-77
2021/03/03 05:58:32;;;;;;;38.45;8.63;;;;;;;1.04;100.00;101064.84;5059246;28;20047;-77
2021/03/03 06:01:36;;;;;;;23.73;5.75;;;;;;;1.05;100.00;101063.66;5059147;28;20063;-77
2021/03/03 06:04:40;;;;;;;25.92;5.68;;;;;;;1.06;100.00;101057.00;5059560;28;20052;-77
2021/03/03 06:07:46;;;;;;;19.45;7.00;;;;;;;1.06;100.00;101057.00;5071516;28;20043;-77
2021/03/03 06:10:51;;;;;;;19.70;5.05;;;;;;;1.04;100.00;101057.38;5071631;28;20056;-77
2021/03/03 06:13:59;;;;;;;25.52;6.57;;;;;;;1.02;100.00;101067.94;5071402;28;20052;-77
2021/03/03 06:17:03;;;;;;;22.02;7.45;;;;;;;1.01;100.00;101077.34;5071849;28;20078;-77
2021/03/03 06:20:07;;;;;;;32.50;6.15;;;;;;;1.00;100.00;101075.75;5071557;28;20048;-76
2021/03/03 06:23:23;;;;;;;25.08;7.85;;;;;;;1.00;100.00;101070.28;5059339;28;20401;-77
2021/03/03 06:26:27;;;;;;;14.35;6.32;;;;;;;1.02;100.00;101073.44;5071476;28;20043;-77
2021/03/03 06:29:30;;;;;;;18.67;6.43;;;;;;;1.03;100.00;101069.53;5071369;28;20055;-77
2021/03/03 06:32:55;;;;;;;25.67;6.65;;;;;;;1.07;100.00;101081.31;5071219;28;20048;-77
2021/03/03 06:35:59;;;;;;;26.88;6.22;;;;;;;1.06;100.00;101076.97;5071560;28;20040;-77
2021/03/03 06:39:28;;;;;;;36.30;7.70;;;;;;;1.09;100.00;101073.47;5071431;28;20107;-77
2021/03/03 06:42:32;;;;;;;17.98;6.22;;;;;;;1.11;100.00;101076.63;5058857;28;20159;-77
2021/03/03 06:45:36;;;;;;;22.25;7.70;;;;;;;1.13;100.00;101084.47;5071319;28;20063;-77
2021/03/03 06:48:41;;;;;;;32.95;5.13;;;;;;;1.14;100.00;101075.88;5058880;28;20150;-78
2021/03/03 06:51:47;;;;;;;51.33;8.57;;;;;;;1.14;100.00;101075.09;5061329;28;20048;-77
2021/03/03 06:55:00;;;;;;;37.25;9.18;;;;;;;1.13;100.00;101071.56;5075055;28;20059;-77
2021/03/03 06:58:23;;;;;;;35.45;9.73;;;;;;;1.12;100.00;101083.69;5074927;28;20043;-76
2021/03/03 07:01:34;;;;;;;26.33;5.95;;;;;;;1.11;100.00;101087.59;5074692;28;20401;-77
2021/03/03 07:04:39;;;;;;;18.02;4.50;;;;;;;1.11;100.00;101086.81;5074551;28;20051;-77
2021/03/03 07:07:43;;;;;;;28.63;6.35;;;;;;;1.12;100.00;101091.94;5062106;28;20048;-77
2021/03/03 07:10:47;;;;;;;19.73;4.35;;;;;;;1.12;100.00;101091.94;5062275;28;20059;-78
2021/03/03 07:13:50;;;;;;;19.60;6.40;;;;;;;1.14;100.00;101092.34;5062083;28;20047;-77
2021/03/03 07:17:06;;;;;;;13.85;5.28;;;;;;;1.14;100.00;101089.59;5061968;28;20060;-77
2021/03/03 07:20:14;;;;;;;25.98;6.00;;;;;;;1.17;100.00;101091.56;5062145;28;20051;-76
2021/03/03 07:23:17;;;;;;;21.30;5.90;;;;;;;1.21;100.00;101092.38;5074253;28;20393;-76
2021/03/03 07:26:21;;;;;;;26.25;8.45;;;;;;;1.23;100.00;101097.50;5061900;28;20433;-76
2021/03/03 07:29:25;;;;;;;25.05;6.90;;;;;;;1.27;100.00;101095.56;5061653;28;20044;-77
2021/03/03 07:32:28;;;;;;;34.22;7.32;;;;;;;1.31;100.00;101102.63;5061709;28;20063;-77
2021/03/03 07:35:32;;;;;;;28.17;8.38;;;;;;;1.35;100.00;101111.69;5073716;28;20052;-77
2021/03/03 07:38:43;;;;;;;27.73;7.82;;;;;;;1.38;100.00;101112.88;5061823;28;20040;-77
2021/03/03 07:41:47;;;;;;;33.22;7.20;;;;;;;1.40;100.00;101110.53;5074107;28;20040;-77
2021/03/03 07:44:54;;;;;;;34.20;8.65;;;;;;;1.42;100.00;101102.69;5061428;28;20052;-77
2021/03/03 07:47:59;;;;;;;24.77;8.05;;;;;;;1.43;100.00;101105.06;5073851;28;20043;-77
2021/03/03 07:51:06;;;;;;;27.63;7.32;;;;;;;1.45;100.00;101108.19;5073871;28;20063;-77
2021/03/03 07:54:14;;;;;;;43.10;7.80;;;;;;;1.47;100.00;101105.84;5061605;28;20048;-77
2021/03/03 07:57:18;;;;;;;18.55;4.95;;;;;;;1.51;100.00;101114.13;5073947;28;20527;-77
2021/03/03 08:00:25;;;;;;;18.02;6.78;;;;;;;1.58;100.00;101113.38;5074009;28;20393;-77
2021/03/03 08:03:47;;;;;;;33.70;5.75;;;;;;;1.64;100.00;101112.63;5072860;28;20405;-77
2021/03/03 08:06:51;;;;;;;26.52;9.93;;;;;;;1.69;100.00;101106.00;5073369;28;20603;-78
2021/03/03 08:10:13;;;;;;;40.65;7.10;;;;;;;1.72;100.00;101105.22;5073503;28;20055;-77
2021/03/03 08:13:31;;;;;;;22.02;5.80;;;;;;;1.79;100.00;101105.25;5073292;28;20047;-77
2021/03/03 08:16:53;;;;;;;25.40;6.40;;;;;;;1.84;100.00;101113.88;5073159;28;20507;-77
2021/03/03 08:19:59;;;;;;;55.13;10.38;;;;;;;1.87;100.00;101102.16;5061122;28;20047;-77
2021/03/03 08:23:02;;;;;;;19.63;5.35;;;;;;;1.91;100.00;101096.66;5073519;28;20041;-77
2021/03/03 08:26:17;;;;;;;26.70;6.28;;;;;;;1.93;100.00;101105.28;5060787;28;20043;-77
2021/03/03 08:29:23;;;;;;;46.85;7.05;;;;;;;1.95;100.00;101105.72;5060724;28;20063;-76
2021/03/03 08:32:27;;;;;;;35.20;8.27;;;;;;;1.96;100.00;101104.53;5072958;28;20389;-76
2021/03/03 08:35:39;;;;;;;23.80;6.35;;;;;;;1.97;100.00;101101.38;5060544;28;20048;-76
2021/03/03 08:38:42;;;;;;;19.77;6.30;;;;;;;1.98;100.00;101102.19;5060478;28;20048;-76
2021/03/03 08:41:45;;;;;;;31.88;8.65;;;;;;;1.97;100.00;101106.13;5074147;28;20051;-76
2021/03/03 08:45:06;;;;;;;33.67;7.22;;;;;;;1.99;100.00;101110.03;5060749;28;20055;-76
2021/03/03 08:48:10;;;;;;;21.03;6.03;;;;;;;1.98;100.00;101102.19;5060273;28;20089;-77
2021/03/03 08:51:44;;;;;;;17.75;4.53;;;;;;;1.97;100.00;101103.38;5059888;28;20043;-77
2021/03/03 08:54:48;;;;;;;46.58;5.65;;;;;;;1.99;100.00;101098.28;5060225;28;20531;-77
2021/03/03 08:57:51;;;;;;;23.00;7.95;;;;;;;2.02;100.00;101098.28;5059900;28;20405;-76
2021/03/03 09:00:54;;;;;;;27.23;4.47;;;;;;;2.07;100.00;101095.16;5060164;28;20044;-76
2021/03/03 09:04:01;;;;;;;12.65;4.90;;;;;;;2.15;100.00;101096.75;5059942;28;20051;-76
2021/03/03 09:07:31;;;;;;;32.15;5.32;;;;;;;2.21;100.00;101094.41;5059733;28;20063;-77
2021/03/03 09:10:35;;;;;;;38.50;6.55;;;;;;;2.28;100.00;101100.72;5059676;28;20060;-77
2021/03/03 09:13:38;;;;;;;31.10;7.00;;;;;;;2.35;100.00;101093.66;5081718;28;20050;-76
2021/03/03 09:16:55;;;;;;;32.65;6.85;;;;;;;2.40;100.00;101096.81;5071932;28;20063;-76
2021/03/03 09:20:05;;;;;;;28.02;7.47;;;;;;;2.46;100.00;101083.47;5059534;28;20043;-76
2021/03/03 09:23:08;;;;;;;26.27;7.07;;;;;;;2.51;100.00;101092.13;5071857;28;20051;-76
2021/03/03 09:26:21;;;;;;;45.95;8.57;;;;;;;2.54;100.00;101080.34;5059300;28;20063;-76
2021/03/03 09:29:36;;;;;;;25.00;5.25;;;;;;;2.58;100.00;101075.63;5059451;28;20111;-76
2021/03/03 09:32:41;;;;;;;22.10;5.85;;;;;;;2.60;100.00;101070.50;5059714;28;20047;-76
2021/03/03 09:35:45;;;;;;;43.83;8.70;;;;;;;2.66;100.00;101073.69;5072022;28;20052;-76
2021/03/03 09:39:00;;;;;;;17.20;3.85;;;;;;;2.67;100.00;101072.47;5059849;28;20047;-76
2021/03/03 09:42:06;;;;;;;24.73;5.35;;;;;;;2.64;100.00;101079.53;5059511;28;20047;-76
2021/03/03 09:45:31;;;;;;;39.25;8.55;;;;;;;2.62;100.00;101070.91;5059764;28;20047;-77
2021/03/03 09:48:35;;;;;;;23.73;5.25;;;;;;;2.70;100.00;101072.50;5059538;28;20059;-76
2021/03/03 09:51:45;;;;;;;23.77;6.22;;;;;;;2.79;100.00;101077.63;5059105;28;20524;-77
2021/03/03 09:54:49;;;;;;;37.00;7.07;;;;;;;2.85;100.00;101073.28;5071853;28;20055;-78
2021/03/03 09:57:54;;;;;;;25.17;7.05;;;;;;;3.00;100.00;101086.66;5072020;28;20044;-78
2021/03/03 10:00:58;;;;;;;31.25;6.30;;;;;;;3.08;100.00;101082.69;5059819;28;20043;-78
2021/03/03 10:04:01;;;;;;;26.27;6.93;;;;;;;3.17;100.00;101074.03;5059743;28;20047;-78
2021/03/03 10:07:18;;;;;;;25.02;6.75;;;;;;;3.23;100.00;101071.69;5071804;28;20063;-76
2021/03/03 10:10:26;;;;;;;32.13;6.22;;;;;;;3.23;100.00;101083.47;5059320;28;20047;-77
2021/03/03 10:13:30;;;;;;;23.88;5.40;;;;;;;3.30;100.00;101080.69;5072056;28;20052;-76
2021/03/03 10:16:33;;;;;;;38.63;8.30;;;;;;;3.45;100.00;101073.19;5059099;28;20402;-76
2021/03/03 10:19:43;;;;;;;17.40;4.95;;;;;;;3.51;100.00;101077.13;5071486;28;20052;-76
2021/03/03 10:22:46;;;;;;;13.43;3.28;;;;;;;3.51;100.00;101069.63;5059274;28;20048;-76
2021/03/03 10:25:52;;;;;;;18.08;4.78;;;;;;;3.55;100.00;101067.66;5060355;28;20055;-77
2021/03/03 10:28:55;;;;;;;42.83;8.38;;;;;;;3.56;100.00;101071.19;5063156;28;20047;-76
2021/03/03 10:32:25;;;;;;;34.72;7.35;;;;;;;3.52;100.00;101064.91;5075078;28;20528;-76
2021/03/03 10:35:30;;;;;;;23.17;5.88;;;;;;;3.56;100.00;101068.44;5075052;28;20067;-76
2021/03/03 10:38:35;;;;;;;11.68;4.68;;;;;;;3.59;100.00;101067.66;5075558;28;20039;-76
2021/03/03 10:41:38;;;;;;;22.35;6.32;;;;;;;3.62;100.00;101061.31;5062955;28;20051;-76
2021/03/03 10:44:42;;;;;;;20.90;4.38;;;;;;;3.65;100.00;101049.53;5062577;28;20039;-76
2021/03/03 10:47:49;;;;;;;18.65;5.85;;;;;;;3.63;100.00;101054.66;5074847;28;20052;-76
2021/03/03 10:50:52;;;;;;;40.03;7.00;;;;;;;3.56;100.00;101069.22;5074808;28;20075;-76
2021/03/03 10:54:00;;;;;;;30.92;7.05;;;;;;;3.53;100.00;101072.00;5062933;28;20057;-77
2021/03/03 10:57:05;;;;;;;33.22;6.00;;;;;;;3.53;100.00;101055.47;5062839;28;20082;-77
2021/03/03 11:00:09;;;;;;;19.45;5.05;;;;;;;3.52;100.00;101056.66;5075149;28;20056;-77
2021/03/03 11:03:13;;;;;;;23.02;5.90;;;;;;;3.47;100.00;101059.81;5062565;28;20044;-77
2021/03/03 11:06:16;;;;;;;32.67;7.68;;;;;;;3.48;100.00;101077.91;5062379;28;20048;-77
2021/03/03 11:09:19;;;;;;;21.55;3.90;;;;;;;3.49;100.00;101076.72;5061655;28;20040;-77
2021/03/03 11:12:24;;;;;;;27.00;6.78;;;;;;;3.44;100.00;101082.66;5062066;28;20048;-77
2021/03/03 11:15:27;;;;;;;26.75;6.10;;;;;;;3.36;100.00;101086.56;5074349;28;20130;-77
2021/03/03 11:18:31;;;;;;;23.77;6.25;;;;;;;3.32;100.00;101088.56;5074257;28;20060;-77
2021/03/03 11:21:34;;;;;;;20.30;6.65;;;;;;;3.32;100.00;101088.56;5061689;28;20048;-77
2021/03/03 11:24:38;;;;;;;29.92;5.28;;;;;;;3.27;100.00;101088.97;5061948;28;20047;-77
2021/03/03 11:27:41;;;;;;;26.17;5.75;;;;;;;3.20;100.00;101092.53;5061755;28;20076;-77
2021/03/03 11:30:45;;;;;;;20.30;8.30;;;;;;;3.13;100.00;101095.28;5061598;28;20068;-77
2021/03/03 11:33:49;;;;;;;25.38;7.15;;;;;;;3.07;100.00;101086.63;5061634;28;20059;-77
2021/03/03 11:36:52;;;;;;;38.25;9.55;;;;;;;3.04;100.00;101081.91;5060719;28;20051;-77
2021/03/03 11:39:56;;;;;;;28.63;7.05;;;;;;;3.01;100.00;101081.94;5061580;28;20045;-77
2021/03/03 11:43:00;;;;;;;20.42;7.35;;;;;;;2.94;100.00;101079.97;5061771;28;20074;-77
2021/03/03 11:46:03;;;;;;;27.48;8.02;;;;;;;2.92;100.00;101084.28;5061489;28;20055;-77
2021/03/03 11:49:07;;;;;;;16.25;4.47;;;;;;;2.90;100.00;101065.41;5061448;28;20048;-76
2021/03/03 11:52:10;;;;;;;18.60;4.82;;;;;;;2.92;100.00;101063.03;5073637;28;20047;-77
2021/03/03 11:55:13;;;;;;;40.30;5.63;;;;;;;2.94;100.00;101055.22;5073769;28;20048;-76
2021/03/03 11:58:17;;;;;;;41.58;5.43;;;;;;;2.99;100.00;101054.78;5073559;28;20056;-76
2021/03/03 12:01:21;;;;;;;46.38;9.77;;;;;;;3.02;100.00;101045.75;5061129;28;20047;-76
2021/03/03 12:04:24;;;;;;;16.98;5.57;;;;;;;3.05;100.00;101047.69;5061043;28;20047;-75
2021/03/03 12:07:28;;;;;;;17.92;5.32;;;;;;;3.12;100.00;101049.66;5073445;28;20059;-77
2021/03/03 12:10:33;;;;;;;37.92;6.78;;;;;;;3.20;100.00;101050.44;5060384;28;20523;-77
2021/03/03 12:13:37;;;;;;;24.80;5.72;;;;;;;3.24;100.00;101051.22;5073213;28;20047;-77
2021/03/03 12:16:40;;;;;;;33.00;8.55;;;;;;;3.30;100.00;101046.88;5072983;28;20071;-77
2021/03/03 12:19:43;;;;;;;21.30;5.13;;;;;;;3.44;100.00;101055.13;5060878;28;20040;-76
2021/03/03 12:22:47;;;;;;;23.50;6.53;;;;;;;3.51;100.00;101049.59;5060726;28;20052;-76
2021/03/03 12:25:51;;;;;;;17.40;5.65;;;;;;;3.59;100.00;101049.16;5060683;28;20055;-76
2021/03/03 12:28:54;;;;;;;18.50;6.05;;;;;;;3.75;100.00;101055.00;5060555;28;20052;-76
2021/03/03 12:31:57;;;;;;;30.75;6.93;;;;;;;3.92;100.00;101045.06;5073117;28;20506;-76
2021/03/03 12:35:01;;;;;;;31.98;5.30;;;;;;;3.99;100.00;101039.53;5073059;28;20048;-76
2021/03/03 12:38:04;;;;;;;17.75;5.07;;;;;;;4.20;100.00;101033.13;5060982;28;20044;-75
2021/03/03 12:41:08;;;;;;;30.05;5.00;;;;;;;4.52;100.00;101028.94;5060928;28;20052;-75
2021/03/03 12:44:12;;;;;;;12.65;3.40;;;;;;;4.71;100.00;101027.59;5072815;28;20400;-76
2021/03/03 12:47:16;;;;;;;26.63;4.88;;;;;;;4.74;100.00;101018.53;5060131;28;20047;-76
2021/03/03 12:50:19;;;;;;;19.08;4.20;;;;;;;4.75;100.00;101011.00;5059651;28;20075;-76
2021/03/03 12:53:23;;;;;;;17.05;4.55;;;;;;;4.82;100.00;101005.44;5061121;28;20036;-77
2021/03/03 12:56:26;;;;;;;34.92;5.90;;;;;;;4.91;100.00;101005.75;5059428;28;20043;-76
2021/03/03 12:59:30;;;;;;;17.42;4.90;;;;;;;4.99;100.00;101018.28;5071567;28;20048;-76
2021/03/03 13:02:33;;;;;;;10.27;3.08;;;;;;;4.98;100.00;101013.97;5071633;28;20101;-76
2021/03/03 13:05:37;;;;;;;11.95;4.35;;;;;;;4.94;100.00;101002.16;5058813;28;20539;-76
2021/03/03 13:08:40;;;;;;;30.90;5.80;;;;;;;5.00;100.00;100989.50;5059095;28;20040;-76
2021/03/03 13:11:43;;;;;;;23.55;4.65;;;;;;;4.97;100.00;100998.59;5059739;28;20051;-76
2021/03/03 13:14:46;;;;;;;17.83;5.75;;;;;;;5.00;100.00;100984.72;5059720;28;20539;-77
2021/03/03 13:17:50;;;;;;;24.33;4.38;;;;;;;5.07;100.00;100994.91;5071915;28;20425;-77
2021/03/03 13:20:54;;;;;;;22.85;4.97;;;;;;;5.12;100.00;100991.72;5059732;28;20397;-77
2021/03/03 13:23:58;;;;;;;28.00;5.43;;;;;;;5.13;100.00;100999.59;5059961;28;20039;-77
2021/03/03 13:27:01;;;;;;;27.83;4.57;;;;;;;5.16;100.00;100995.22;5059615;28;20047;-77
2021/03/03 13:30:05;;;;;;;30.17;5.57;;;;;;;5.21;100.00;101000.31;5071940;28;20043;-77
2021/03/03 13:33:09;;;;;;;17.00;4.93;;;;;;;5.30;100.00;100997.84;5059892;28;20048;-77
2021/03/03 13:36:12;;;;;;;19.13;5.78;;;;;;;5.52;100.00;100987.31;5059988;28;20048;-77
2021/03/03 13:39:17;;;;;;;26.70;4.97;;;;;;;5.66;100.00;100982.41;5072249;28;20051;-77
2021/03/03 13:42:21;;;;;;;22.05;5.68;;;;;;;5.62;100.00;100980.88;5059367;28;20047;-77
2021/03/03 13:45:28;;;;;;;47.38;7.55;;;;;;;5.59;100.00;100992.78;5059865;28;20063;-77
2021/03/03 13:48:31;;;;;;;30.65;7.32;;;;;;;5.53;100.00;100983.34;5071650;28;20044;-77
2021/03/03 13:51:34;;;;;;;18.77;5.32;;;;;;;5.33;100.00;100991.47;5059294;28;20044;-77
2021/03/03 13:54:38;;;;;;;43.30;6.57;;;;;;;5.23;100.00;100992.41;5059732;28;20044;-77
2021/03/03 13:57:41;;;;;;;37.83;7.53;;;;;;;5.08;100.00;100993.75;5059416;28;20047;-77
2021/03/03 14:00:45;;;;;;;22.48;5.38;;;;;;;4.84;100.00;100975.44;5061113;28;20055;-77
2021/03/03 14:03:48;;;;;;;46.03;7.72;;;;;;;4.74;100.00;100984.63;5076100;28;20511;-80
2021/03/03 14:06:52;;;;;;;25.38;6.82;;;;;;;4.76;100.00;100972.00;5063781;28;20047;-80
2021/03/03 14:09:56;;;;;;;28.90;7.32;;;;;;;4.96;100.00;100966.66;5063689;28;20504;-80
2021/03/03 14:13:00;;;;;;;28.42;6.75;;;;;;;5.21;100.00;100961.66;5063670;28;20047;-80